sensor_id;sensor_type;location;lat;lon;timestamp;P1;durP1;ratioP1;P2;durP2;ratioP2
16113;SDS011;8161;-33.910;151.156;2022-12-07T00:01:32;7.28;;;1.40;;
16113;SDS011;8161;-33.910;151.156;2022-12-07T00:04:01;7.38;;;1.83;;
16113;SDS011;8161;-33.910;151.156;2022-12-07T00:06:31;6.30;;;1.30;;
16113;SDS011;8161;-33.910;151.156;2022-12-07T00:09:03;5.15;;;1.52;;
16113;SDS011;8161;-33.910;151.156;2022-12-07T00:11:32;4.85;;;1.40;;
16113;SDS011;8161;-33.910;151.156;2022-12-07T00:14:01;4.63;;;1.38;;
16113;SDS011;8161;-33.910;151.156;2022-12-07T00:16:31;5.72;;;1.85;;
16113;SDS011;8161;-33.910;151.156;2022-12-07T00:18:59;3.10;;;1.27;;
16113;SDS011;8161;-33.910;151.156;2022-12-07T00:21:28;6.38;;;1.75;;
16113;SDS011;8161;-33.910;151.156;2022-12-07T00:23:57;7.10;;;2.10;;
16113;SDS011;8161;-33.910;151.156;2022-12-07T00:26:32;3.15;;;1.27;;
16113;SDS011;8161;-33.910;151.156;2022-12-07T00:29:05;5.55;;;1.35;;
16113;SDS011;8161;-33.910;151.156;2022-12-07T00:31:36;6.07;;;1.52;;
16113;SDS011;8161;-33.910;151.156;2022-12-07T00:34:07;4.78;;;1.52;;
16113;SDS011;8161;-33.910;151.156;2022-12-07T00:36:39;4.90;;;1.25;;
16113;SDS011;8161;-33.910;151.156;2022-12-07T00:39:10;11.32;;;1.58;;
16113;SDS011;8161;-33.910;151.156;2022-12-07T00:41:37;3.15;;;1.02;;
16113;SDS011;8161;-33.910;151.156;2022-12-07T00:44:05;1.95;;;1.00;;
16113;SDS011;8161;-33.910;151.156;2022-12-07T00:46:32;5.38;;;1.20;;
16113;SDS011;8161;-33.910;151.156;2022-12-07T00:48:59;7.43;;;1.05;;
16113;SDS011;8161;-33.910;151.156;2022-12-07T00:51:27;7.60;;;1.33;;
16113;SDS011;8161;-33.910;151.156;2022-12-07T00:53:54;12.02;;;1.23;;
16113;SDS011;8161;-33.910;151.156;2022-12-07T00:56:23;5.35;;;1.30;;
16113;SDS011;8161;-33.910;151.156;2022-12-07T00:58:53;3.20;;;1.10;;
16113;SDS011;8161;-33.910;151.156;2022-12-07T01:01:22;6.55;;;1.08;;
16113;SDS011;8161;-33.910;151.156;2022-12-07T01:03:50;4.20;;;1.10;;
16113;SDS011;8161;-33.910;151.156;2022-12-07T01:06:20;3.38;;;0.95;;
16113;SDS011;8161;-33.910;151.156;2022-12-07T01:08:49;5.82;;;1.27;;
16113;SDS011;8161;-33.910;151.156;2022-12-07T01:11:17;2.95;;;0.98;;
16113;SDS011;8161;-33.910;151.156;2022-12-07T01:13:49;4.30;;;1.20;;
16113;SDS011;8161;-33.910;151.156;2022-12-07T01:16:18;4.28;;;1.50;;
16113;SDS011;8161;-33.910;151.156;2022-12-07T01:18:47;4.75;;;0.90;;
16113;SDS011;8161;-33.910;151.156;2022-12-07T01:21:36;7.43;;;1.42;;
16113;SDS011;8161;-33.910;151.156;2022-12-07T01:24:05;9.57;;;3.05;;
16113;SDS011;8161;-33.910;151.156;2022-12-07T01:26:35;10.68;;;2.80;;
16113;SDS011;8161;-33.910;151.156;2022-12-07T01:29:02;9.30;;;2.30;;
16113;SDS011;8161;-33.910;151.156;2022-12-07T01:31:30;10.55;;;2.15;;
16113;SDS011;8161;-33.910;151.156;2022-12-07T01:33:58;8.57;;;2.13;;
16113;SDS011;8161;-33.910;151.156;2022-12-07T01:36:30;7.50;;;2.85;;
16113;SDS011;8161;-33.910;151.156;2022-12-07T01:39:00;9.77;;;2.42;;
16113;SDS011;8161;-33.910;151.156;2022-12-07T01:41:31;9.95;;;2.30;;
16113;SDS011;8161;-33.910;151.156;2022-12-07T01:46:43;9.82;;;2.05;;
16113;SDS011;8161;-33.910;151.156;2022-12-07T01:49:14;7.53;;;2.35;;
16113;SDS011;8161;-33.910;151.156;2022-12-07T01:52:00;7.10;;;2.17;;
16113;SDS011;8161;-33.910;151.156;2022-12-07T01:54:32;9.38;;;2.40;;
16113;SDS011;8161;-33.910;151.156;2022-12-07T01:57:00;9.32;;;2.33;;
16113;SDS011;8161;-33.910;151.156;2022-12-07T01:59:28;11.60;;;2.50;;
16113;SDS011;8161;-33.910;151.156;2022-12-07T02:01:56;10.07;;;2.67;;
16113;SDS011;8161;-33.910;151.156;2022-12-07T02:04:23;12.23;;;2.67;;
16113;SDS011;8161;-33.910;151.156;2022-12-07T02:06:51;10.73;;;3.67;;
16113;SDS011;8161;-33.910;151.156;2022-12-07T02:09:21;15.32;;;3.08;;
16113;SDS011;8161;-33.910;151.156;2022-12-07T02:11:48;14.75;;;2.63;;
16113;SDS011;8161;-33.910;151.156;2022-12-07T02:14:16;9.32;;;2.45;;
16113;SDS011;8161;-33.910;151.156;2022-12-07T02:16:53;13.80;;;2.90;;
16113;SDS011;8161;-33.910;151.156;2022-12-07T02:28:04;11.25;;;2.53;;
16113;SDS011;8161;-33.910;151.156;2022-12-07T02:30:45;10.18;;;2.53;;
16113;SDS011;8161;-33.910;151.156;2022-12-07T02:33:19;5.38;;;1.88;;
16113;SDS011;8161;-33.910;151.156;2022-12-07T02:38:55;18.27;;;4.75;;
16113;SDS011;8161;-33.910;151.156;2022-12-07T02:41:27;8.52;;;3.03;;
16113;SDS011;8161;-33.910;151.156;2022-12-07T02:44:07;16.90;;;3.60;;
16113;SDS011;8161;-33.910;151.156;2022-12-07T02:46:47;16.20;;;4.03;;
16113;SDS011;8161;-33.910;151.156;2022-12-07T02:49:25;10.75;;;3.22;;
16113;SDS011;8161;-33.910;151.156;2022-12-07T02:51:54;10.82;;;2.78;;
16113;SDS011;8161;-33.910;151.156;2022-12-07T02:54:21;13.00;;;3.08;;
16113;SDS011;8161;-33.910;151.156;2022-12-07T02:56:53;13.05;;;3.30;;
16113;SDS011;8161;-33.910;151.156;2022-12-07T03:17:15;12.43;;;2.80;;
16113;SDS011;8161;-33.910;151.156;2022-12-07T03:19:44;14.80;;;3.50;;
16113;SDS011;8161;-33.910;151.156;2022-12-07T03:22:13;9.57;;;2.95;;
16113;SDS011;8161;-33.910;151.156;2022-12-07T03:24:45;11.90;;;2.95;;
16113;SDS011;8161;-33.910;151.156;2022-12-07T03:27:27;11.55;;;3.75;;
16113;SDS011;8161;-33.910;151.156;2022-12-07T03:30:03;11.35;;;3.17;;
16113;SDS011;8161;-33.910;151.156;2022-12-07T03:32:39;11.75;;;3.17;;
16113;SDS011;8161;-33.910;151.156;2022-12-07T03:35:18;8.15;;;3.08;;
16113;SDS011;8161;-33.910;151.156;2022-12-07T03:37:59;12.70;;;2.72;;
16113;SDS011;8161;-33.910;151.156;2022-12-07T03:40:54;11.85;;;3.50;;
16113;SDS011;8161;-33.910;151.156;2022-12-07T03:43:29;11.73;;;2.85;;
16113;SDS011;8161;-33.910;151.156;2022-12-07T03:51:50;8.30;;;3.13;;
16113;SDS011;8161;-33.910;151.156;2022-12-07T03:55:22;9.35;;;3.15;;
16113;SDS011;8161;-33.910;151.156;2022-12-07T03:57:34;11.25;;;2.92;;
16113;SDS011;8161;-33.910;151.156;2022-12-07T04:00:04;13.75;;;3.28;;
16113;SDS011;8161;-33.910;151.156;2022-12-07T04:02:33;15.73;;;3.03;;
16113;SDS011;8161;-33.910;151.156;2022-12-07T04:05:02;9.02;;;3.10;;
16113;SDS011;8161;-33.910;151.156;2022-12-07T04:07:30;9.18;;;3.03;;
16113;SDS011;8161;-33.910;151.156;2022-12-07T04:09:57;16.42;;;3.03;;
16113;SDS011;8161;-33.910;151.156;2022-12-07T04:12:25;11.05;;;3.17;;
16113;SDS011;8161;-33.910;151.156;2022-12-07T04:14:52;10.55;;;2.92;;
16113;SDS011;8161;-33.910;151.156;2022-12-07T04:17:19;6.38;;;3.28;;
16113;SDS011;8161;-33.910;151.156;2022-12-07T04:19:47;9.43;;;2.58;;
16113;SDS011;8161;-33.910;151.156;2022-12-07T04:22:15;11.25;;;2.70;;
16113;SDS011;8161;-33.910;151.156;2022-12-07T04:24:44;8.88;;;3.35;;
16113;SDS011;8161;-33.910;151.156;2022-12-07T04:27:12;7.18;;;2.53;;
16113;SDS011;8161;-33.910;151.156;2022-12-07T04:29:39;5.50;;;1.40;;
16113;SDS011;8161;-33.910;151.156;2022-12-07T04:32:06;5.60;;;1.30;;
16113;SDS011;8161;-33.910;151.156;2022-12-07T04:34:34;3.15;;;0.85;;
16113;SDS011;8161;-33.910;151.156;2022-12-07T04:37:02;1.63;;;0.73;;
16113;SDS011;8161;-33.910;151.156;2022-12-07T04:39:30;2.10;;;0.70;;
16113;SDS011;8161;-33.910;151.156;2022-12-07T04:41:59;10.55;;;1.25;;
16113;SDS011;8161;-33.910;151.156;2022-12-07T04:44:27;1.45;;;0.80;;
16113;SDS011;8161;-33.910;151.156;2022-12-07T04:46:55;6.22;;;0.90;;
16113;SDS011;8161;-33.910;151.156;2022-12-07T04:49:23;1.75;;;0.65;;
16113;SDS011;8161;-33.910;151.156;2022-12-07T04:51:51;1.27;;;0.50;;
16113;SDS011;8161;-33.910;151.156;2022-12-07T04:54:18;1.45;;;0.68;;
16113;SDS011;8161;-33.910;151.156;2022-12-07T04:56:45;2.17;;;0.73;;
16113;SDS011;8161;-33.910;151.156;2022-12-07T04:59:14;1.13;;;0.43;;
16113;SDS011;8161;-33.910;151.156;2022-12-07T05:01:42;1.58;;;0.47;;
16113;SDS011;8161;-33.910;151.156;2022-12-07T05:04:10;2.75;;;0.50;;
16113;SDS011;8161;-33.910;151.156;2022-12-07T05:06:37;2.25;;;0.40;;
16113;SDS011;8161;-33.910;151.156;2022-12-07T05:09:05;1.83;;;0.77;;
16113;SDS011;8161;-33.910;151.156;2022-12-07T05:11:32;1.42;;;0.50;;
16113;SDS011;8161;-33.910;151.156;2022-12-07T05:16:44;2.25;;;0.63;;
16113;SDS011;8161;-33.910;151.156;2022-12-07T05:19:13;5.20;;;0.73;;
16113;SDS011;8161;-33.910;151.156;2022-12-07T05:21:40;1.40;;;0.50;;
16113;SDS011;8161;-33.910;151.156;2022-12-07T05:24:09;39.20;;;5.70;;
16113;SDS011;8161;-33.910;151.156;2022-12-07T05:26:38;9.02;;;1.08;;
16113;SDS011;8161;-33.910;151.156;2022-12-07T05:29:05;3.78;;;0.85;;
16113;SDS011;8161;-33.910;151.156;2022-12-07T05:31:32;1.98;;;0.55;;
16113;SDS011;8161;-33.910;151.156;2022-12-07T05:34:00;6.43;;;0.80;;
16113;SDS011;8161;-33.910;151.156;2022-12-07T05:36:27;1.88;;;0.60;;
16113;SDS011;8161;-33.910;151.156;2022-12-07T05:38:57;5.50;;;1.75;;
16113;SDS011;8161;-33.910;151.156;2022-12-07T05:41:25;8.73;;;1.45;;
16113;SDS011;8161;-33.910;151.156;2022-12-07T05:44:06;3.00;;;0.60;;
16113;SDS011;8161;-33.910;151.156;2022-12-07T05:46:33;2.60;;;0.60;;
16113;SDS011;8161;-33.910;151.156;2022-12-07T05:49:01;3.95;;;0.70;;
16113;SDS011;8161;-33.910;151.156;2022-12-07T05:51:29;5.22;;;0.75;;
16113;SDS011;8161;-33.910;151.156;2022-12-07T05:53:57;3.55;;;0.70;;
16113;SDS011;8161;-33.910;151.156;2022-12-07T05:56:24;2.28;;;0.70;;
16113;SDS011;8161;-33.910;151.156;2022-12-07T05:58:52;3.72;;;0.68;;
16113;SDS011;8161;-33.910;151.156;2022-12-07T06:01:34;2.28;;;0.70;;
16113;SDS011;8161;-33.910;151.156;2022-12-07T06:04:01;1.80;;;0.75;;
16113;SDS011;8161;-33.910;151.156;2022-12-07T06:06:29;2.42;;;1.13;;
16113;SDS011;8161;-33.910;151.156;2022-12-07T06:08:56;1.80;;;0.80;;
16113;SDS011;8161;-33.910;151.156;2022-12-07T06:11:24;3.35;;;0.95;;
16113;SDS011;8161;-33.910;151.156;2022-12-07T06:14:04;2.60;;;1.17;;
16113;SDS011;8161;-33.910;151.156;2022-12-07T06:16:31;3.70;;;0.90;;
16113;SDS011;8161;-33.910;151.156;2022-12-07T06:18:59;3.30;;;1.02;;
16113;SDS011;8161;-33.910;151.156;2022-12-07T06:21:27;2.92;;;0.90;;
16113;SDS011;8161;-33.910;151.156;2022-12-07T06:23:54;7.07;;;1.00;;
16113;SDS011;8161;-33.910;151.156;2022-12-07T06:26:22;4.57;;;1.00;;
16113;SDS011;8161;-33.910;151.156;2022-12-07T06:28:49;2.80;;;0.60;;
16113;SDS011;8161;-33.910;151.156;2022-12-07T06:31:17;2.83;;;0.63;;
16113;SDS011;8161;-33.910;151.156;2022-12-07T06:33:44;3.10;;;0.70;;
16113;SDS011;8161;-33.910;151.156;2022-12-07T06:36:12;6.75;;;1.33;;
16113;SDS011;8161;-33.910;151.156;2022-12-07T06:38:40;1.77;;;0.90;;
16113;SDS011;8161;-33.910;151.156;2022-12-07T06:41:08;1.58;;;0.70;;
16113;SDS011;8161;-33.910;151.156;2022-12-07T06:43:36;4.18;;;1.33;;
16113;SDS011;8161;-33.910;151.156;2022-12-07T06:46:03;2.67;;;0.80;;
16113;SDS011;8161;-33.910;151.156;2022-12-07T06:48:31;6.57;;;1.17;;
16113;SDS011;8161;-33.910;151.156;2022-12-07T06:50:59;2.30;;;0.88;;
16113;SDS011;8161;-33.910;151.156;2022-12-07T06:53:26;4.22;;;0.90;;
16113;SDS011;8161;-33.910;151.156;2022-12-07T06:55:53;3.45;;;0.80;;
16113;SDS011;8161;-33.910;151.156;2022-12-07T06:58:21;1.50;;;0.85;;
16113;SDS011;8161;-33.910;151.156;2022-12-07T07:00:49;3.97;;;0.70;;
16113;SDS011;8161;-33.910;151.156;2022-12-07T07:03:17;4.10;;;1.05;;
16113;SDS011;8161;-33.910;151.156;2022-12-07T07:05:44;0.98;;;0.50;;
16113;SDS011;8161;-33.910;151.156;2022-12-07T07:08:12;2.17;;;0.85;;
16113;SDS011;8161;-33.910;151.156;2022-12-07T07:10:40;3.88;;;0.70;;
16113;SDS011;8161;-33.910;151.156;2022-12-07T07:13:08;2.10;;;0.60;;
16113;SDS011;8161;-33.910;151.156;2022-12-07T07:15:37;2.70;;;0.70;;
16113;SDS011;8161;-33.910;151.156;2022-12-07T07:18:04;2.55;;;0.80;;
16113;SDS011;8161;-33.910;151.156;2022-12-07T07:20:31;1.48;;;0.60;;
16113;SDS011;8161;-33.910;151.156;2022-12-07T07:22:59;3.25;;;0.80;;
16113;SDS011;8161;-33.910;151.156;2022-12-07T07:25:26;5.50;;;1.02;;
16113;SDS011;8161;-33.910;151.156;2022-12-07T07:27:53;2.00;;;0.90;;
16113;SDS011;8161;-33.910;151.156;2022-12-07T07:30:21;3.67;;;1.02;;
16113;SDS011;8161;-33.910;151.156;2022-12-07T07:32:48;2.17;;;0.90;;
16113;SDS011;8161;-33.910;151.156;2022-12-07T07:35:16;2.78;;;1.00;;
16113;SDS011;8161;-33.910;151.156;2022-12-07T07:37:43;1.95;;;0.88;;
16113;SDS011;8161;-33.910;151.156;2022-12-07T07:40:10;2.17;;;0.88;;
16113;SDS011;8161;-33.910;151.156;2022-12-07T07:42:38;1.85;;;0.88;;
16113;SDS011;8161;-33.910;151.156;2022-12-07T07:45:05;3.92;;;1.10;;
16113;SDS011;8161;-33.910;151.156;2022-12-07T07:47:33;1.38;;;0.52;;
16113;SDS011;8161;-33.910;151.156;2022-12-07T07:50:00;2.55;;;0.90;;
16113;SDS011;8161;-33.910;151.156;2022-12-07T07:52:28;1.88;;;0.80;;
16113;SDS011;8161;-33.910;151.156;2022-12-07T07:54:56;3.20;;;0.70;;
16113;SDS011;8161;-33.910;151.156;2022-12-07T07:57:24;1.92;;;0.70;;
16113;SDS011;8161;-33.910;151.156;2022-12-07T07:59:52;2.80;;;0.77;;
16113;SDS011;8161;-33.910;151.156;2022-12-07T08:02:20;4.82;;;0.70;;
16113;SDS011;8161;-33.910;151.156;2022-12-07T08:04:48;2.25;;;0.70;;
16113;SDS011;8161;-33.910;151.156;2022-12-07T08:07:16;1.73;;;1.10;;
16113;SDS011;8161;-33.910;151.156;2022-12-07T08:09:43;2.72;;;0.98;;
16113;SDS011;8161;-33.910;151.156;2022-12-07T08:12:10;3.50;;;0.73;;
16113;SDS011;8161;-33.910;151.156;2022-12-07T08:14:38;2.58;;;1.00;;
16113;SDS011;8161;-33.910;151.156;2022-12-07T08:17:06;2.90;;;1.05;;
16113;SDS011;8161;-33.910;151.156;2022-12-07T08:19:34;1.67;;;0.70;;
16113;SDS011;8161;-33.910;151.156;2022-12-07T08:22:01;2.35;;;0.88;;
16113;SDS011;8161;-33.910;151.156;2022-12-07T08:24:29;2.95;;;0.70;;
16113;SDS011;8161;-33.910;151.156;2022-12-07T08:26:57;1.58;;;0.70;;
16113;SDS011;8161;-33.910;151.156;2022-12-07T08:29:25;3.38;;;0.80;;
16113;SDS011;8161;-33.910;151.156;2022-12-07T08:31:52;1.67;;;0.70;;
16113;SDS011;8161;-33.910;151.156;2022-12-07T08:34:20;0.88;;;0.50;;
16113;SDS011;8161;-33.910;151.156;2022-12-07T08:36:47;2.88;;;0.70;;
16113;SDS011;8161;-33.910;151.156;2022-12-07T08:39:15;1.02;;;0.60;;
16113;SDS011;8161;-33.910;151.156;2022-12-07T08:41:42;3.00;;;1.20;;
16113;SDS011;8161;-33.910;151.156;2022-12-07T08:44:09;2.22;;;0.90;;
16113;SDS011;8161;-33.910;151.156;2022-12-07T08:49:20;2.67;;;0.90;;
16113;SDS011;8161;-33.910;151.156;2022-12-07T08:51:52;1.30;;;0.90;;
16113;SDS011;8161;-33.910;151.156;2022-12-07T08:54:21;2.92;;;1.13;;
16113;SDS011;8161;-33.910;151.156;2022-12-07T08:56:48;2.72;;;0.85;;
16113;SDS011;8161;-33.910;151.156;2022-12-07T08:59:17;3.67;;;1.20;;
16113;SDS011;8161;-33.910;151.156;2022-12-07T09:01:47;2.10;;;0.90;;
16113;SDS011;8161;-33.910;151.156;2022-12-07T09:04:14;4.43;;;0.90;;
16113;SDS011;8161;-33.910;151.156;2022-12-07T09:06:44;2.85;;;0.73;;
16113;SDS011;8161;-33.910;151.156;2022-12-07T09:09:12;3.03;;;0.80;;
16113;SDS011;8161;-33.910;151.156;2022-12-07T09:11:41;2.33;;;0.70;;
16113;SDS011;8161;-33.910;151.156;2022-12-07T09:14:10;2.28;;;0.70;;
16113;SDS011;8161;-33.910;151.156;2022-12-07T09:16:38;1.23;;;0.75;;
16113;SDS011;8161;-33.910;151.156;2022-12-07T09:19:07;2.28;;;0.80;;
16113;SDS011;8161;-33.910;151.156;2022-12-07T09:21:35;1.63;;;0.82;;
16113;SDS011;8161;-33.910;151.156;2022-12-07T09:24:02;1.73;;;0.75;;
16113;SDS011;8161;-33.910;151.156;2022-12-07T09:26:29;1.17;;;0.50;;
16113;SDS011;8161;-33.910;151.156;2022-12-07T09:28:57;1.33;;;0.77;;
16113;SDS011;8161;-33.910;151.156;2022-12-07T09:31:25;1.80;;;0.90;;
16113;SDS011;8161;-33.910;151.156;2022-12-07T09:33:55;1.75;;;0.55;;
16113;SDS011;8161;-33.910;151.156;2022-12-07T09:36:24;0.75;;;0.50;;
16113;SDS011;8161;-33.910;151.156;2022-12-07T09:38:55;2.17;;;0.60;;
16113;SDS011;8161;-33.910;151.156;2022-12-07T09:41:22;2.30;;;0.90;;
16113;SDS011;8161;-33.910;151.156;2022-12-07T09:43:52;1.50;;;0.68;;
16113;SDS011;8161;-33.910;151.156;2022-12-07T09:46:24;3.13;;;0.85;;
16113;SDS011;8161;-33.910;151.156;2022-12-07T09:48:51;3.13;;;0.85;;
16113;SDS011;8161;-33.910;151.156;2022-12-07T09:51:22;2.00;;;0.88;;
16113;SDS011;8161;-33.910;151.156;2022-12-07T09:53:54;2.38;;;0.75;;
16113;SDS011;8161;-33.910;151.156;2022-12-07T09:56:23;1.42;;;0.60;;
16113;SDS011;8161;-33.910;151.156;2022-12-07T09:58:59;1.48;;;0.65;;
16113;SDS011;8161;-33.910;151.156;2022-12-07T10:01:30;2.47;;;0.70;;
16113;SDS011;8161;-33.910;151.156;2022-12-07T10:06:39;1.52;;;0.90;;
16113;SDS011;8161;-33.910;151.156;2022-12-07T10:09:11;3.03;;;0.85;;
16113;SDS011;8161;-33.910;151.156;2022-12-07T10:14:52;2.78;;;0.90;;
16113;SDS011;8161;-33.910;151.156;2022-12-07T10:17:47;1.60;;;0.88;;
16113;SDS011;8161;-33.910;151.156;2022-12-07T10:20:19;2.08;;;0.82;;
16113;SDS011;8161;-33.910;151.156;2022-12-07T10:25:33;3.40;;;0.90;;
16113;SDS011;8161;-33.910;151.156;2022-12-07T10:44:29;1.67;;;0.85;;
16113;SDS011;8161;-33.910;151.156;2022-12-07T10:57:59;2.15;;;0.70;;
16113;SDS011;8161;-33.910;151.156;2022-12-07T11:14:08;3.13;;;0.85;;
16113;SDS011;8161;-33.910;151.156;2022-12-07T11:16:55;2.10;;;0.80;;
16113;SDS011;8161;-33.910;151.156;2022-12-07T11:31:05;1.73;;;0.77;;
16113;SDS011;8161;-33.910;151.156;2022-12-07T11:38:53;2.15;;;0.93;;
16113;SDS011;8161;-33.910;151.156;2022-12-07T11:41:31;6.45;;;1.20;;
16113;SDS011;8161;-33.910;151.156;2022-12-07T11:47:02;3.10;;;0.80;;
16113;SDS011;8161;-33.910;151.156;2022-12-07T11:52:15;2.10;;;0.68;;
16113;SDS011;8161;-33.910;151.156;2022-12-07T11:54:57;1.75;;;0.73;;
16113;SDS011;8161;-33.910;151.156;2022-12-07T11:57:33;2.10;;;0.80;;
16113;SDS011;8161;-33.910;151.156;2022-12-07T12:00:15;1.83;;;0.77;;
16113;SDS011;8161;-33.910;151.156;2022-12-07T12:03:08;1.63;;;0.90;;
16113;SDS011;8161;-33.910;151.156;2022-12-07T12:05:49;2.83;;;0.90;;
16113;SDS011;8161;-33.910;151.156;2022-12-07T12:08:18;2.38;;;0.60;;
16113;SDS011;8161;-33.910;151.156;2022-12-07T12:21:30;2.65;;;0.80;;
16113;SDS011;8161;-33.910;151.156;2022-12-07T12:23:59;2.78;;;0.65;;
16113;SDS011;8161;-33.910;151.156;2022-12-07T12:26:48;1.10;;;0.65;;
16113;SDS011;8161;-33.910;151.156;2022-12-07T12:29:26;0.80;;;0.63;;
16113;SDS011;8161;-33.910;151.156;2022-12-07T12:32:43;1.85;;;0.70;;
16113;SDS011;8161;-33.910;151.156;2022-12-07T12:37:45;2.53;;;0.60;;
16113;SDS011;8161;-33.910;151.156;2022-12-07T12:42:45;1.75;;;0.80;;
16113;SDS011;8161;-33.910;151.156;2022-12-07T12:45:18;2.15;;;1.20;;
16113;SDS011;8161;-33.910;151.156;2022-12-07T12:47:53;3.65;;;1.23;;
16113;SDS011;8161;-33.910;151.156;2022-12-07T12:50:37;0.85;;;0.50;;
16113;SDS011;8161;-33.910;151.156;2022-12-07T13:01:33;1.02;;;0.60;;
16113;SDS011;8161;-33.910;151.156;2022-12-07T13:03:59;0.90;;;0.60;;
16113;SDS011;8161;-33.910;151.156;2022-12-07T13:08:54;1.92;;;0.63;;
16113;SDS011;8161;-33.910;151.156;2022-12-07T13:11:29;2.53;;;0.70;;
16113;SDS011;8161;-33.910;151.156;2022-12-07T13:16:56;1.33;;;0.70;;
16113;SDS011;8161;-33.910;151.156;2022-12-07T13:19:52;0.68;;;0.50;;
16113;SDS011;8161;-33.910;151.156;2022-12-07T13:28:00;1.92;;;0.63;;
16113;SDS011;8161;-33.910;151.156;2022-12-07T13:30:40;3.15;;;0.75;;
16113;SDS011;8161;-33.910;151.156;2022-12-07T13:33:32;2.58;;;0.85;;
16113;SDS011;8161;-33.910;151.156;2022-12-07T13:36:04;1.05;;;0.63;;
16113;SDS011;8161;-33.910;151.156;2022-12-07T13:38:51;1.92;;;0.90;;
16113;SDS011;8161;-33.910;151.156;2022-12-07T13:41:22;2.65;;;0.47;;
16113;SDS011;8161;-33.910;151.156;2022-12-07T13:46:52;1.20;;;0.70;;
16113;SDS011;8161;-33.910;151.156;2022-12-07T13:49:26;3.00;;;1.10;;
16113;SDS011;8161;-33.910;151.156;2022-12-07T13:52:08;2.58;;;0.70;;
16113;SDS011;8161;-33.910;151.156;2022-12-07T13:57:16;2.17;;;0.60;;
16113;SDS011;8161;-33.910;151.156;2022-12-07T13:59:44;1.52;;;0.47;;
16113;SDS011;8161;-33.910;151.156;2022-12-07T14:02:22;1.92;;;0.80;;
16113;SDS011;8161;-33.910;151.156;2022-12-07T14:05:08;1.75;;;0.70;;
16113;SDS011;8161;-33.910;151.156;2022-12-07T14:07:53;3.67;;;0.68;;
16113;SDS011;8161;-33.910;151.156;2022-12-07T14:10:30;0.50;;;0.32;;
16113;SDS011;8161;-33.910;151.156;2022-12-07T14:13:00;1.35;;;0.68;;
16113;SDS011;8161;-33.910;151.156;2022-12-07T14:15:32;1.02;;;0.60;;
16113;SDS011;8161;-33.910;151.156;2022-12-07T14:18:01;1.85;;;0.45;;
16113;SDS011;8161;-33.910;151.156;2022-12-07T14:20:39;1.63;;;0.70;;
16113;SDS011;8161;-33.910;151.156;2022-12-07T14:23:21;0.73;;;0.40;;
16113;SDS011;8161;-33.910;151.156;2022-12-07T14:25:52;1.08;;;0.52;;
16113;SDS011;8161;-33.910;151.156;2022-12-07T14:30:59;2.78;;;0.70;;
16113;SDS011;8161;-33.910;151.156;2022-12-07T14:33:27;0.40;;;0.40;;
16113;SDS011;8161;-33.910;151.156;2022-12-07T14:35:55;1.10;;;0.50;;
16113;SDS011;8161;-33.910;151.156;2022-12-07T14:38:24;1.85;;;0.50;;
16113;SDS011;8161;-33.910;151.156;2022-12-07T14:40:55;8.70;;;0.95;;
16113;SDS011;8161;-33.910;151.156;2022-12-07T14:43:36;1.15;;;0.75;;
16113;SDS011;8161;-33.910;151.156;2022-12-07T14:46:04;0.98;;;0.50;;
16113;SDS011;8161;-33.910;151.156;2022-12-07T14:48:32;0.60;;;0.52;;
16113;SDS011;8161;-33.910;151.156;2022-12-07T14:50:59;1.67;;;0.60;;
16113;SDS011;8161;-33.910;151.156;2022-12-07T14:53:33;1.25;;;0.63;;
16113;SDS011;8161;-33.910;151.156;2022-12-07T14:56:05;1.63;;;0.65;;
16113;SDS011;8161;-33.910;151.156;2022-12-07T14:58:33;1.38;;;0.70;;
16113;SDS011;8161;-33.910;151.156;2022-12-07T15:01:00;2.45;;;0.63;;
16113;SDS011;8161;-33.910;151.156;2022-12-07T15:03:27;1.60;;;0.70;;
16113;SDS011;8161;-33.910;151.156;2022-12-07T15:05:55;1.20;;;0.50;;
16113;SDS011;8161;-33.910;151.156;2022-12-07T15:08:23;0.80;;;0.50;;
16113;SDS011;8161;-33.910;151.156;2022-12-07T15:10:50;1.75;;;0.70;;
16113;SDS011;8161;-33.910;151.156;2022-12-07T15:13:17;0.88;;;0.55;;
16113;SDS011;8161;-33.910;151.156;2022-12-07T15:15:58;0.98;;;0.60;;
16113;SDS011;8161;-33.910;151.156;2022-12-07T15:18:26;1.42;;;0.70;;
16113;SDS011;8161;-33.910;151.156;2022-12-07T15:20:54;0.82;;;0.65;;
16113;SDS011;8161;-33.910;151.156;2022-12-07T15:23:21;2.75;;;0.80;;
16113;SDS011;8161;-33.910;151.156;2022-12-07T15:25:50;1.45;;;0.68;;
16113;SDS011;8161;-33.910;151.156;2022-12-07T15:28:18;1.25;;;0.60;;
16113;SDS011;8161;-33.910;151.156;2022-12-07T15:30:45;2.67;;;0.77;;
16113;SDS011;8161;-33.910;151.156;2022-12-07T15:33:13;2.25;;;0.70;;
16113;SDS011;8161;-33.910;151.156;2022-12-07T15:35:41;2.22;;;0.80;;
16113;SDS011;8161;-33.910;151.156;2022-12-07T15:38:10;2.70;;;0.57;;
16113;SDS011;8161;-33.910;151.156;2022-12-07T15:40:38;2.05;;;0.80;;
16113;SDS011;8161;-33.910;151.156;2022-12-07T15:43:07;1.38;;;0.50;;
16113;SDS011;8161;-33.910;151.156;2022-12-07T15:45:55;3.70;;;0.65;;
16113;SDS011;8161;-33.910;151.156;2022-12-07T15:48:22;3.58;;;0.63;;
16113;SDS011;8161;-33.910;151.156;2022-12-07T15:50:50;1.25;;;0.60;;
16113;SDS011;8161;-33.910;151.156;2022-12-07T15:53:17;2.22;;;0.70;;
16113;SDS011;8161;-33.910;151.156;2022-12-07T15:55:44;2.53;;;0.73;;
16113;SDS011;8161;-33.910;151.156;2022-12-07T15:58:12;3.00;;;0.85;;
16113;SDS011;8161;-33.910;151.156;2022-12-07T16:00:39;1.52;;;0.82;;
16113;SDS011;8161;-33.910;151.156;2022-12-07T16:03:06;2.83;;;0.65;;
16113;SDS011;8161;-33.910;151.156;2022-12-07T16:05:34;1.35;;;0.85;;
16113;SDS011;8161;-33.910;151.156;2022-12-07T16:08:01;3.13;;;0.80;;
16113;SDS011;8161;-33.910;151.156;2022-12-07T16:10:28;1.95;;;0.70;;
16113;SDS011;8161;-33.910;151.156;2022-12-07T16:12:55;3.15;;;1.30;;
16113;SDS011;8161;-33.910;151.156;2022-12-07T16:15:23;2.33;;;0.65;;
16113;SDS011;8161;-33.910;151.156;2022-12-07T16:17:51;4.93;;;0.75;;
16113;SDS011;8161;-33.910;151.156;2022-12-07T16:20:19;1.70;;;0.80;;
16113;SDS011;8161;-33.910;151.156;2022-12-07T16:22:46;1.10;;;0.60;;
16113;SDS011;8161;-33.910;151.156;2022-12-07T16:25:16;2.97;;;0.70;;
16113;SDS011;8161;-33.910;151.156;2022-12-07T16:27:44;1.80;;;0.70;;
16113;SDS011;8161;-33.910;151.156;2022-12-07T16:30:13;3.28;;;0.80;;
16113;SDS011;8161;-33.910;151.156;2022-12-07T16:32:42;2.53;;;0.90;;
16113;SDS011;8161;-33.910;151.156;2022-12-07T16:35:09;1.63;;;1.08;;
16113;SDS011;8161;-33.910;151.156;2022-12-07T16:37:37;1.58;;;0.77;;
16113;SDS011;8161;-33.910;151.156;2022-12-07T16:40:04;1.67;;;0.60;;
16113;SDS011;8161;-33.910;151.156;2022-12-07T16:42:33;2.13;;;0.73;;
16113;SDS011;8161;-33.910;151.156;2022-12-07T16:45:01;5.13;;;1.13;;
16113;SDS011;8161;-33.910;151.156;2022-12-07T16:47:29;4.07;;;1.27;;
16113;SDS011;8161;-33.910;151.156;2022-12-07T16:49:56;1.80;;;0.95;;
16113;SDS011;8161;-33.910;151.156;2022-12-07T16:52:24;4.28;;;1.45;;
16113;SDS011;8161;-33.910;151.156;2022-12-07T16:54:51;2.70;;;0.95;;
16113;SDS011;8161;-33.910;151.156;2022-12-07T16:57:18;3.83;;;1.17;;
16113;SDS011;8161;-33.910;151.156;2022-12-07T16:59:46;3.10;;;1.10;;
16113;SDS011;8161;-33.910;151.156;2022-12-07T17:02:13;6.07;;;2.33;;
16113;SDS011;8161;-33.910;151.156;2022-12-07T17:04:40;2.58;;;1.17;;
16113;SDS011;8161;-33.910;151.156;2022-12-07T17:07:08;1.52;;;0.90;;
16113;SDS011;8161;-33.910;151.156;2022-12-07T17:09:36;4.07;;;1.00;;
16113;SDS011;8161;-33.910;151.156;2022-12-07T17:12:03;4.15;;;1.08;;
16113;SDS011;8161;-33.910;151.156;2022-12-07T17:14:32;1.20;;;0.73;;
16113;SDS011;8161;-33.910;151.156;2022-12-07T17:17:12;3.50;;;0.98;;
16113;SDS011;8161;-33.910;151.156;2022-12-07T17:19:40;3.30;;;0.90;;